Метеостанция


АнтоновUKKM 230730Z 08002MPS 340V130 CAVOK 14/03 Q1014 R15/CLRD70 NOSIG
БориспольUKBB 230730Z 04003MPS 010V090 CAVOK 13/03 Q1015 R88/CLRD// NOSIG
Гаврышовка (Винница)UKWW 230730Z 31002MPS CAVOK 15/05 Q1014 R13/0///65 NOSIG
ДнепропетровскUKDD 230730Z 36007MPS 330V050 CAVOK 14/02 Q1013 R26/090070 NOSIG
ДонецкNo METAR available for UKCC.
ЖуляныUKKK 230730Z VRB01MPS CAVOK 14/02 Q1014 R08/CLRD70 NOSIG
Запорожье(Мокрая)UKDE 230730Z 33006MPS 290V010 9999 FEW050 14/04 Q1012 R02/CLRD70 NOSIG
Ивано-ФранковскUKLI 230730Z 00000MPS CAVOK 17/06 Q1015 R28/090070 NOSIG
Кривой РогUKDR 230730Z 02005MPS 340V060 CAVOK 16/02 Q1014 R36/09//70 NOSIG
ЛуганскNo METAR available for UKCW.
ЛьвовUKLL 230730Z VRB01MPS CAVOK 17/01 Q1015 R31/CLRD// NOSIG
МариупольNo METAR available for UKCM.
НиколаевUKON 230730Z VRB01MPS CAVOK 17/02 Q1014 NOSIG
ОдессаUKOO 230730Z 03003MPS 340V060 CAVOK 18/03 Q1014 R34/090060 NOSIG
РовноUKLR 230730Z 30002MPS 240V340 CAVOK 16/01 Q1015 NOSIG
СимферопольNo METAR available for UKFF.
УжгородUKLU 230730Z 00000MPS 9999 BKN200 15/08 Q1015 R10/090070 NOSIG
ХарьковUKHH 230730Z 03005MPS 330V120 9999 BKN022 08/01 Q1013 R07/0///66 NOSIG
ЧеркассыNo METAR available for UKKE.
ЧерновцыUKLN 230730Z 33002MPS 290V010 CAVOK 16/02 Q1015 R33/09//70 NOSIG
Скачать:
Скачать этот файл (Metar_шпаргалка.jpg)Расшифровка METAR[ ]4799 Кб
Вся информация, которая имеется в использовании на сайте и доступная для скачивания, получена исключительно из открытых источников информации сети Интернет, всякое совпадение с данными, имеющими ограничения в доступе, случайное и не является преднамеренным.